Time;durP1;ratioP1;P1;durP2;ratioP2;P2;SDS_P1;SDS_P2;PMS_P1;PMS_P2;Temp;Humidity;BMP_temperature;BMP_pressure;BME280_temperature;BME280_humidity;BME280_pressure;Samples;Min_cycle;Max_cycle;Signal;HPM_P1;HPM_P2
2023/05/18 00:02:49;;;;;;;4.47;0.52;;;;;;;12.10;100.00;99942.50;6347312;28;20510;-70
2023/05/18 00:05:50;;;;;;;0.55;0.32;;;;;;;12.00;100.00;99935.41;6330052;28;20055;-70
2023/05/18 00:08:51;;;;;;;0.35;0.22;;;;;;;11.97;100.00;99931.22;6330265;28;20426;-71
2023/05/18 00:11:52;;;;;;;0.40;0.40;;;;;;;11.99;100.00;99938.97;6329826;28;20043;-70
2023/05/18 00:14:53;;;;;;;0.43;0.30;;;;;;;11.86;100.00;99934.56;6329907;28;20495;-72
2023/05/18 00:17:54;;;;;;;0.57;0.30;;;;;;;12.01;100.00;99934.47;6329741;28;20039;-71
2023/05/18 00:20:57;;;;;;;0.85;0.40;;;;;;;11.88;100.00;99935.31;6329627;28;20054;-72
2023/05/18 00:23:58;;;;;;;0.90;0.65;;;;;;;11.85;100.00;99935.47;6347800;28;20556;-71
2023/05/18 00:26:59;;;;;;;0.22;0.22;;;;;;;11.84;100.00;99932.97;6329494;28;20047;-71
2023/05/18 00:29:59;;;;;;;0.70;0.60;;;;;;;11.89;100.00;99936.16;6329622;28;20047;-70
2023/05/18 00:33:00;;;;;;;0.30;0.30;;;;;;;11.86;100.00;99933.69;6329309;28;20055;-71
2023/05/18 00:36:01;;;;;;;0.85;0.55;;;;;;;11.71;100.00;99938.19;6347695;28;20044;-71
2023/05/18 00:39:03;;;;;;;0.32;0.30;;;;;;;11.55;100.00;99945.38;6347298;28;20051;-72
2023/05/18 00:42:04;;;;;;;0.17;0.17;;;;;;;11.65;100.00;99941.22;6329092;28;20479;-72
2023/05/18 00:45:05;;;;;;;2.88;0.50;;;;;;;11.63;100.00;99949.19;6329054;28;20051;-71
2023/05/18 00:48:06;;;;;;;0.63;0.50;;;;;;;11.59;100.00;99946.84;6329187;28;20078;-71
2023/05/18 00:51:07;;;;;;;0.85;0.60;;;;;;;11.72;100.00;99933.81;6347176;28;20048;-71
2023/05/18 00:54:09;;;;;;;0.82;0.60;;;;;;;11.63;100.00;99937.88;6328789;28;20128;-73
2023/05/18 00:57:12;;;;;;;0.50;0.40;;;;;;;11.62;100.00;99941.44;6346992;28;20051;-72
2023/05/18 01:00:14;;;;;;;4.88;0.68;;;;;;;11.75;100.00;99938.81;6328675;28;20217;-72
2023/05/18 01:03:15;;;;;;;0.60;0.60;;;;;;;11.91;100.00;99946.50;6328583;28;20458;-73
2023/05/18 01:06:17;;;;;;;0.88;0.70;;;;;;;11.82;100.00;99937.47;6328549;28;20355;-72
2023/05/18 01:09:20;;;;;;;0.57;0.57;;;;;;;11.87;100.00;99948.44;6328682;28;20055;-71
2023/05/18 01:12:28;;;;;;;0.98;0.70;;;;;;;11.76;100.00;99948.34;6328449;28;20163;-72
2023/05/18 01:15:34;;;;;;;1.15;0.60;;;;;;;11.73;100.00;99940.72;6328097;28;20511;-72
2023/05/18 01:18:53;;;;;;;0.80;0.60;;;;;;;11.69;100.00;99945.31;6346303;28;20043;-72
2023/05/18 01:22:37;;;;;;;0.60;0.60;;;;;;;11.67;100.00;99945.44;6346630;28;20051;-72
2023/05/18 01:25:53;;;;;;;0.80;0.55;;;;;;;11.69;100.00;99940.06;6328195;28;20051;-72
2023/05/18 01:28:57;;;;;;;0.60;0.50;;;;;;;11.63;100.00;99943.97;6346090;28;20487;-72
2023/05/18 01:31:58;;;;;;;0.70;0.70;;;;;;;11.62;100.00;99937.03;6346134;28;20434;-73
2023/05/18 01:34:59;;;;;;;0.90;0.70;;;;;;;11.59;100.00;99941.63;6327768;28;20059;-72
2023/05/18 01:38:00;;;;;;;0.30;0.30;;;;;;;11.59;100.00;99945.09;6345960;28;20430;-72
2023/05/18 01:41:23;;;;;;;1.10;0.60;;;;;;;11.55;100.00;99937.53;6327901;28;20051;-72
2023/05/18 01:44:35;;;;;;;0.77;0.65;;;;;;;11.56;100.00;99944.47;6327908;28;20144;-72
2023/05/18 01:47:41;;;;;;;;;;;;;;;11.52;100.00;99954.28;6328070;28;20043;-72
2023/05/18 01:50:47;;;;;;;0.43;0.40;;;;;;;11.59;100.00;99941.63;6327829;28;19931;-72
2023/05/18 01:54:01;;;;;;;1.05;0.45;;;;;;;11.53;100.00;99942.91;6327568;28;20043;-72
2023/05/18 01:57:05;;;;;;;0.50;0.50;;;;;;;11.52;100.00;99946.44;6345574;28;20048;-72
2023/05/18 02:00:08;;;;;;;0.55;0.55;;;;;;;11.59;100.00;99949.47;6327423;28;20510;-72
2023/05/18 02:03:12;;;;;;;0.47;0.47;;;;;;;11.50;100.00;99950.94;6327592;28;20053;-72
2023/05/18 02:06:14;;;;;;;0.95;0.80;;;;;;;11.57;100.00;99952.22;6327185;28;20407;-73
2023/05/18 02:09:15;;;;;;;0.68;0.45;;;;;;;11.62;100.00;99955.34;6345630;28;20154;-73
2023/05/18 02:12:16;;;;;;;0.95;0.85;;;;;;;11.67;100.00;99955.03;6345463;28;20048;-73
2023/05/18 02:15:17;;;;;;;0.50;0.50;;;;;;;11.60;100.00;99953.78;6345304;28;20048;-73
2023/05/18 02:18:18;;;;;;;0.38;0.38;;;;;;;11.50;100.00;99953.53;6327195;28;20044;-71
2023/05/18 02:21:19;;;;;;;1.27;0.70;;;;;;;11.56;100.00;99960.13;6327247;28;20055;-71
2023/05/18 02:24:21;;;;;;;0.77;0.65;;;;;;;11.52;100.00;99953.44;6327280;28;20044;-72
2023/05/18 02:27:22;;;;;;;0.80;0.80;;;;;;;11.49;100.00;99963.16;6349071;28;20399;-72
2023/05/18 02:30:23;;;;;;;1.27;0.65;;;;;;;11.58;100.00;99968.72;6332616;28;20079;-71
2023/05/18 02:33:25;;;;;;;0.75;0.75;;;;;;;11.64;100.00;99970.91;6332141;28;20290;-71
2023/05/18 02:36:25;;;;;;;0.80;0.80;;;;;;;11.57;100.00;99972.25;6350560;28;20055;-72
2023/05/18 02:39:26;;;;;;;0.47;0.47;;;;;;;11.60;100.00;99975.50;6332122;28;20407;-71
2023/05/18 02:42:27;;;;;;;0.70;0.70;;;;;;;11.53;100.00;99971.63;6331851;28;20514;-71
2023/05/18 02:45:27;;;;;;;0.80;0.75;;;;;;;11.55;100.00;99974.13;6331868;28;20058;-71
2023/05/18 02:48:31;;;;;;;1.38;1.00;;;;;;;11.49;100.00;99975.41;6349961;28;20087;-71
2023/05/18 02:51:32;;;;;;;0.55;0.55;;;;;;;11.57;100.00;99983.56;6331974;28;20059;-71
2023/05/18 02:54:32;;;;;;;2.50;0.73;;;;;;;11.57;100.00;99982.69;6331476;28;20051;-72
2023/05/18 02:57:33;;;;;;;3.17;0.90;;;;;;;11.59;100.00;99980.81;6331685;28;20572;-72
2023/05/18 03:00:34;;;;;;;2.08;0.80;;;;;;;11.53;100.00;99981.22;6349816;28;20051;-73
2023/05/18 03:03:35;;;;;;;0.60;0.60;;;;;;;11.59;100.00;99986.06;6349979;28;20072;-73
2023/05/18 03:06:39;;;;;;;1.15;0.63;;;;;;;11.56;100.00;99983.66;6349561;28;20081;-73
2023/05/18 03:09:40;;;;;;;0.80;0.68;;;;;;;11.67;100.00;99991.59;6349443;28;20416;-73
2023/05/18 03:12:40;;;;;;;0.73;0.60;;;;;;;11.66;100.00;99995.19;6331266;28;20058;-74
2023/05/18 03:15:44;;;;;;;4.88;1.02;;;;;;;11.65;100.00;99993.47;6349309;28;20051;-73
2023/05/18 03:18:44;;;;;;;0.93;0.38;;;;;;;11.65;100.00;99998.72;6349502;28;20092;-73
2023/05/18 03:21:48;;;;;;;0.68;0.52;;;;;;;11.67;100.00;100000.31;6331242;28;20044;-72
2023/05/18 03:24:50;;;;;;;0.50;0.50;;;;;;;11.66;100.00;99998.63;6349296;28;20051;-73
2023/05/18 03:27:54;;;;;;;0.57;0.47;;;;;;;11.74;100.00;100005.97;6349115;28;20051;-74
2023/05/18 03:30:57;;;;;;;0.40;0.40;;;;;;;11.67;100.00;100002.91;6331116;28;20083;-74
2023/05/18 03:33:58;;;;;;;1.60;0.70;;;;;;;11.75;100.00;100009.41;6330785;28;20101;-73
2023/05/18 03:36:58;;;;;;;0.63;0.60;;;;;;;11.73;100.00;100013.91;6330991;28;20051;-73
2023/05/18 03:40:09;;;;;;;0.50;0.50;;;;;;;11.71;100.00;100019.22;6348990;28;20051;-74
2023/05/18 03:43:10;;;;;;;1.15;0.52;;;;;;;11.73;100.00;100021.75;6330790;28;20051;-72
2023/05/18 03:46:13;;;;;;;0.82;0.47;;;;;;;11.80;100.00;100026.47;6330499;28;20411;-73
2023/05/18 03:49:14;;;;;;;0.45;0.45;;;;;;;11.86;100.00;100020.81;6348655;28;20434;-74
2023/05/18 03:52:21;;;;;;;0.45;0.40;;;;;;;11.84;100.00;100033.16;6330370;28;20435;-74
2023/05/18 03:55:22;;;;;;;1.52;0.55;;;;;;;11.88;100.00;100041.63;6348332;28;20056;-73
2023/05/18 03:58:23;;;;;;;1.05;0.40;;;;;;;11.82;100.00;100036.78;6330311;28;20286;-73
2023/05/18 04:01:24;;;;;;;0.52;0.50;;;;;;;11.86;100.00;100044.34;6348230;28;20381;-73
2023/05/18 04:04:26;;;;;;;0.77;0.57;;;;;;;11.85;100.00;100040.06;6348454;28;20048;-73
2023/05/18 04:07:26;;;;;;;2.87;0.70;;;;;;;11.82;100.00;100045.50;6330027;28;20055;-74
2023/05/18 04:10:27;;;;;;;0.77;0.50;;;;;;;11.94;100.00;100053.47;6330063;28;20419;-73
2023/05/18 04:13:28;;;;;;;0.60;0.57;;;;;;;11.98;100.00;100050.56;6329809;28;20430;-73
2023/05/18 04:16:29;;;;;;;2.05;0.63;;;;;;;12.14;100.00;100058.22;6329983;28;20047;-73
2023/05/18 04:19:32;;;;;;;0.85;0.60;;;;;;;12.18;100.00;100061.47;6329732;28;20484;-73
2023/05/18 04:22:42;;;;;;;0.40;0.40;;;;;;;12.08;100.00;100061.25;6329602;28;20154;-74
2023/05/18 04:25:42;;;;;;;0.68;0.40;;;;;;;11.95;100.00;100063.84;6329472;28;20091;-74
2023/05/18 04:28:43;;;;;;;0.40;0.40;;;;;;;12.06;100.00;100063.94;6329413;28;20431;-74
2023/05/18 04:31:47;;;;;;;0.55;0.45;;;;;;;12.01;100.00;100071.28;6347546;28;20096;-74
2023/05/18 04:34:48;;;;;;;0.50;0.50;;;;;;;11.99;100.00;100067.94;6347113;28;20071;-74
2023/05/18 04:37:49;;;;;;;1.77;0.70;;;;;;;12.09;100.00;100076.84;6329283;28;20446;-74
2023/05/18 04:40:50;;;;;;;0.20;0.20;;;;;;;12.08;100.00;100074.31;6347275;28;20089;-74
2023/05/18 04:43:52;;;;;;;0.93;0.50;;;;;;;12.24;100.00;100082.81;6329402;28;20083;-74
2023/05/18 04:46:53;;;;;;;0.40;0.40;;;;;;;12.26;100.00;100086.16;6346969;28;20502;-74
2023/05/18 04:49:55;;;;;;;0.77;0.60;;;;;;;12.35;100.00;100084.69;6328746;28;20050;-74
2023/05/18 04:52:56;;;;;;;1.10;0.75;;;;;;;12.23;100.00;100089.00;6347249;28;20291;-74
2023/05/18 04:55:59;;;;;;;0.57;0.57;;;;;;;12.27;100.00;100097.47;6328820;28;20116;-74
2023/05/18 04:59:01;;;;;;;0.80;0.50;;;;;;;12.42;100.00;100093.81;6328634;28;20426;-74
2023/05/18 05:02:03;;;;;;;1.20;0.80;;;;;;;12.51;100.00;100105.44;6328631;28;20558;-73
2023/05/18 05:05:04;;;;;;;0.55;0.40;;;;;;;12.66;100.00;100106.16;6328754;28;20047;-74
2023/05/18 05:08:05;;;;;;;0.60;0.60;;;;;;;12.64;100.00;100101.06;6346725;28;20075;-74
2023/05/18 05:11:08;;;;;;;0.82;0.55;;;;;;;12.69;100.00;100109.41;6346552;28;20043;-73
2023/05/18 05:14:10;;;;;;;0.70;0.52;;;;;;;12.72;100.00;100107.53;6328325;28;20536;-74
2023/05/18 05:17:11;;;;;;;0.60;0.60;;;;;;;12.86;100.00;100105.63;6328403;28;20047;-74
2023/05/18 05:20:12;;;;;;;0.80;0.50;;;;;;;12.78;100.00;100109.72;6325808;28;20047;-74
2023/05/18 05:23:13;;;;;;;1.70;0.60;;;;;;;13.07;100.00;100107.69;6321618;28;20047;-75
2023/05/18 05:26:13;;;;;;;0.85;0.63;;;;;;;13.16;100.00;100111.41;6326682;28;20047;-73
2023/05/18 05:29:14;;;;;;;0.63;0.60;;;;;;;13.01;100.00;100116.81;6328140;28;20476;-74
2023/05/18 05:32:15;;;;;;;1.42;0.70;;;;;;;13.03;100.00;100117.56;6328168;28;20127;-74
2023/05/18 05:35:16;;;;;;;0.90;0.73;;;;;;;13.10;100.00;100128.44;6346017;28;20052;-74
2023/05/18 05:38:16;;;;;;;0.60;0.60;;;;;;;13.18;100.00;100120.00;6321395;28;20054;-73
2023/05/18 05:41:17;;;;;;;0.75;0.75;;;;;;;13.24;100.00;100130.91;6343938;28;20503;-73
2023/05/18 05:44:18;;;;;;;1.58;0.85;;;;;;;13.28;100.00;100129.75;6326818;28;20051;-73
2023/05/18 05:47:18;;;;;;;0.90;0.80;;;;;;;13.30;100.00;100140.13;6327266;28;20048;-73
2023/05/18 05:50:19;;;;;;;0.88;0.80;;;;;;;13.06;100.00;100146.13;6327601;28;20043;-72
2023/05/18 05:53:22;;;;;;;3.22;1.05;;;;;;;13.15;100.00;100138.56;6327404;28;20048;-73
2023/05/18 05:56:23;;;;;;;1.08;0.70;;;;;;;13.12;100.00;100146.66;6327281;28;20520;-73
2023/05/18 05:59:23;;;;;;;0.90;0.77;;;;;;;13.07;100.00;100147.81;6345180;28;20055;-72
2023/05/18 06:02:24;;;;;;;1.13;0.90;;;;;;;13.16;100.00;100159.44;6344833;28;20780;-73
2023/05/18 06:05:25;;;;;;;1.42;0.80;;;;;;;13.07;100.00;100155.69;6327098;28;20096;-72
2023/05/18 06:08:26;;;;;;;1.10;0.70;;;;;;;13.01;100.00;100169.22;6327396;28;20044;-73
2023/05/18 06:11:26;;;;;;;0.80;0.80;;;;;;;13.11;100.00;100166.75;6327876;28;20043;-73
2023/05/18 06:14:27;;;;;;;0.68;0.68;;;;;;;13.17;100.00;100171.56;6327058;28;20569;-73
2023/05/18 06:17:29;;;;;;;1.15;1.05;;;;;;;13.28;100.00;100171.69;6345401;28;20078;-73
2023/05/18 06:20:30;;;;;;;3.75;1.05;;;;;;;13.38;100.00;100177.13;6324334;28;20082;-73
2023/05/18 06:23:30;;;;;;;1.70;1.00;;;;;;;13.37;100.00;100175.47;6345216;28;20043;-73
2023/05/18 06:26:31;;;;;;;1.77;1.17;;;;;;;13.43;100.00;100184.69;6344793;28;20039;-73
2023/05/18 06:29:32;;;;;;;1.02;0.93;;;;;;;13.46;100.00;100185.28;6326838;28;20055;-74
2023/05/18 06:32:33;;;;;;;2.40;1.33;;;;;;;13.59;100.00;100182.63;6327196;28;20094;-72
2023/05/18 06:35:33;;;;;;;1.77;1.58;;;;;;;13.79;100.00;100175.94;6326610;28;20051;-72
2023/05/18 06:38:34;;;;;;;1.30;1.20;;;;;;;13.90;100.00;100180.44;6345135;28;20051;-73
2023/05/18 06:41:35;;;;;;;2.53;1.50;;;;;;;13.91;100.00;100188.16;6317364;28;20079;-73
2023/05/18 06:44:36;;;;;;;3.45;1.80;;;;;;;13.96;100.00;100187.84;6301797;28;20058;-73
2023/05/18 06:47:37;;;;;;;2.65;1.70;;;;;;;13.99;100.00;100192.84;6301951;28;20048;-72
2023/05/18 06:50:38;;;;;;;3.50;1.37;;;;;;;13.91;100.00;100189.94;6345015;28;20052;-72
2023/05/18 06:53:41;;;;;;;1.60;1.50;;;;;;;13.85;100.00;100196.47;6327447;28;20446;-72
2023/05/18 06:56:42;;;;;;;1.65;1.55;;;;;;;14.00;100.00;100198.94;6319015;28;20252;-72
2023/05/18 06:59:43;;;;;;;1.75;1.63;;;;;;;14.03;100.00;100190.84;6315523;28;20054;-72
2023/05/18 07:02:44;;;;;;;1.92;1.70;;;;;;;13.95;100.00;100201.91;6343812;28;20366;-73
2023/05/18 07:05:45;;;;;;;2.40;1.35;;;;;;;14.07;100.00;100208.88;6314875;28;20051;-73
2023/05/18 07:08:46;;;;;;;2.38;1.75;;;;;;;14.13;100.00;100215.47;6320024;28;20056;-73
2023/05/18 07:11:47;;;;;;;1.90;1.60;;;;;;;14.13;100.00;100219.88;6302334;28;20056;-73
2023/05/18 07:14:48;;;;;;;4.53;1.50;;;;;;;14.11;100.00;100217.38;6305871;28;20397;-73
2023/05/18 07:17:49;;;;;;;2.30;1.90;;;;;;;14.08;100.00;100221.06;6305842;28;20048;-73
2023/05/18 07:20:50;;;;;;;1.55;1.45;;;;;;;14.02;100.00;100225.88;6347160;28;20097;-74
2023/05/18 07:23:51;;;;;;;2.45;1.55;;;;;;;14.06;100.00;100225.59;6330793;28;20054;-73
2023/05/18 07:26:52;;;;;;;2.35;1.95;;;;;;;14.04;100.00;100235.34;6330456;28;20085;-72
2023/05/18 07:29:53;;;;;;;2.35;2.05;;;;;;;14.16;100.00;100228.34;6331020;28;20048;-73
2023/05/18 07:32:55;;;;;;;2.72;1.85;;;;;;;14.35;100.00;100227.84;6330768;28;20059;-72
2023/05/18 07:35:56;;;;;;;2.58;2.25;;;;;;;14.33;100.00;100227.13;6330454;28;20085;-73
2023/05/18 07:38:57;;;;;;;3.72;2.65;;;;;;;14.49;100.00;100238.13;6337981;28;20061;-73
2023/05/18 07:41:58;;;;;;;7.15;4.20;;;;;;;14.63;100.00;100237.16;6344021;28;20113;-73
2023/05/18 07:44:59;;;;;;;3.83;2.10;;;;;;;14.71;100.00;100247.91;6348370;28;20052;-72
2023/05/18 07:48:00;;;;;;;2.83;2.15;;;;;;;14.96;100.00;100240.81;6329777;28;20047;-73
2023/05/18 07:51:01;;;;;;;3.25;2.35;;;;;;;15.07;100.00;100247.84;6330375;28;20051;-73
2023/05/18 07:54:04;;;;;;;2.50;2.23;;;;;;;15.24;100.00;100250.03;6347307;28;20533;-72
2023/05/18 07:57:04;;;;;;;;;;;;;;;15.47;100.00;100258.75;6323582;28;20036;-73
2023/05/18 08:00:07;;;;;;;2.63;2.08;;;;;;;15.71;100.00;100258.63;6323466;28;19923;-73
2023/05/18 08:03:08;;;;;;;5.53;2.45;;;;;;;16.06;100.00;100264.66;6323239;28;20105;-73
2023/05/18 08:06:09;;;;;;;2.92;2.00;;;;;;;16.30;100.00;100267.94;6323179;28;20127;-73
2023/05/18 08:09:10;;;;;;;2.70;2.47;;;;;;;16.83;100.00;100269.78;6323357;28;20132;-73
2023/05/18 08:12:10;;;;;;;2.53;2.30;;;;;;;16.96;100.00;100279.28;6304915;28;20051;-73
2023/05/18 08:15:11;;;;;;;2.80;2.13;;;;;;;17.05;100.00;100274.09;6317775;28;20540;-73
2023/05/18 08:18:12;;;;;;;2.58;2.00;;;;;;;16.65;100.00;100285.28;6332716;28;20048;-73
2023/05/18 08:21:12;;;;;;;3.50;2.67;;;;;;;16.76;100.00;100287.06;6305827;28;20389;-73
2023/05/18 08:24:13;;;;;;;3.35;2.60;;;;;;;16.85;100.00;100291.56;6321780;28;20044;-73
2023/05/18 08:27:14;;;;;;;3.92;2.50;;;;;;;16.81;100.00;100290.16;6322846;28;20406;-72
2023/05/18 08:30:15;;;;;;;2.22;2.00;;;;;;;16.97;100.00;100289.72;6305186;28;20480;-73
2023/05/18 08:33:16;;;;;;;3.20;2.38;;;;;;;17.02;100.00;100297.22;6305465;28;20051;-73
2023/05/18 08:36:16;;;;;;;4.82;2.42;;;;;;;17.16;100.00;100296.91;6322832;28;20051;-73
2023/05/18 08:39:21;;;;;;;4.53;2.40;;;;;;;17.61;100.00;100293.09;6335499;28;20047;-72
2023/05/18 08:42:38;;;;;;;2.97;2.30;;;;;;;17.78;100.00;100294.25;6339310;28;20055;-73
2023/05/18 08:45:51;;;;;;;3.35;2.22;;;;;;;17.81;100.00;100291.34;6327746;28;20043;-73
2023/05/18 08:48:53;;;;;;;2.60;2.13;;;;;;;18.15;100.00;100301.59;6346857;28;20079;-73
2023/05/18 08:51:56;;;;;;;9.52;2.40;;;;;;;18.09;100.00;100293.25;6329253;28;20491;-72
2023/05/18 08:54:59;;;;;;;2.03;1.90;;;;;;;18.03;100.00;100295.59;6329647;28;20415;-72
2023/05/18 08:58:01;;;;;;;3.53;2.08;;;;;;;18.17;100.00;100297.03;6344136;28;20048;-73
2023/05/18 09:01:03;;;;;;;2.67;2.00;;;;;;;18.45;100.00;100301.50;6324444;28;20471;-72
2023/05/18 09:04:05;;;;;;;2.90;2.10;;;;;;;18.32;96.78;100299.13;6330205;28;20185;-72
2023/05/18 09:07:07;;;;;;;4.47;2.23;;;;;;;18.49;100.00;100297.59;6302924;28;20515;-72
2023/05/18 09:10:15;;;;;;;6.32;1.98;;;;;;;18.56;99.96;100304.97;6303048;28;20056;-72
2023/05/18 09:13:20;;;;;;;2.38;1.98;;;;;;;18.54;98.39;100305.09;6337291;28;20051;-71
2023/05/18 09:16:21;;;;;;;2.53;2.17;;;;;;;18.66;94.78;100305.81;6345602;28;20048;-72
2023/05/18 09:19:23;;;;;;;3.27;1.57;;;;;;;18.32;96.28;100301.78;6328024;28;20097;-71
2023/05/18 09:22:24;;;;;;;3.90;2.17;;;;;;;18.33;98.42;100302.59;6327750;28;20066;-72
2023/05/18 09:25:26;;;;;;;3.67;2.53;;;;;;;18.10;96.98;100309.94;6345958;28;20051;-72
2023/05/18 09:28:34;;;;;;;3.55;2.00;;;;;;;18.27;100.00;100316.34;6345707;28;20403;-72
2023/05/18 09:31:36;;;;;;;4.63;2.10;;;;;;;18.52;100.00;100309.69;6346011;28;20043;-72
2023/05/18 09:34:44;;;;;;;3.42;2.35;;;;;;;18.63;100.00;100314.84;6327354;28;20059;-72
2023/05/18 09:37:45;;;;;;;1.77;1.63;;;;;;;18.72;91.29;100306.06;6327346;28;20054;-71
2023/05/18 09:40:48;;;;;;;2.50;2.23;;;;;;;18.76;94.58;100308.44;6327648;28;20051;-71
2023/05/18 09:43:50;;;;;;;3.58;2.15;;;;;;;18.80;90.29;100313.34;6345960;28;20073;-72
2023/05/18 09:46:55;;;;;;;6.13;1.95;;;;;;;18.73;90.16;100312.19;6327180;28;20419;-72
2023/05/18 09:49:56;;;;;;;5.45;1.92;;;;;;;18.89;99.08;100315.13;6345885;28;20043;-71
2023/05/18 09:52:59;;;;;;;4.18;1.98;;;;;;;18.95;92.44;100315.56;6327495;28;20047;-72
2023/05/18 09:56:10;;;;;;;4.25;2.30;;;;;;;19.03;97.39;100318.34;6327338;28;20047;-72
2023/05/18 09:59:15;;;;;;;2.47;2.20;;;;;;;18.95;95.59;100320.84;6326329;28;20051;-72
2023/05/18 10:02:18;;;;;;;3.75;2.13;;;;;;;19.15;95.43;100326.91;6322072;28;20059;-71
2023/05/18 10:05:35;;;;;;;9.07;2.13;;;;;;;19.15;88.68;100325.13;6306811;28;20047;-71
2023/05/18 10:08:36;;;;;;;3.45;1.85;;;;;;;19.18;87.31;100332.75;6331571;28;20685;-73
2023/05/18 10:11:39;;;;;;;3.95;2.17;;;;;;;19.06;92.15;100331.25;6304950;28;20055;-72
2023/05/18 10:14:44;;;;;;;6.90;2.13;;;;;;;19.08;89.08;100340.72;6325813;28;20094;-72
2023/05/18 10:17:47;;;;;;;2.15;1.77;;;;;;;18.90;90.38;100334.47;6326070;28;20048;-72
2023/05/18 10:20:52;;;;;;;5.15;2.28;;;;;;;18.77;94.33;100340.00;6302900;28;20066;-72
2023/05/18 10:23:53;;;;;;;2.40;1.83;;;;;;;18.57;90.93;100340.97;6317724;28;20048;-72
2023/05/18 10:27:00;;;;;;;1.90;1.70;;;;;;;18.47;87.71;100343.59;6338230;28;20087;-71
2023/05/18 10:30:04;;;;;;;2.25;1.90;;;;;;;18.66;92.74;100342.81;6333813;28;20104;-71
2023/05/18 10:33:06;;;;;;;2.35;2.13;;;;;;;18.86;93.11;100335.72;6339676;28;20047;-71
2023/05/18 10:36:09;;;;;;;2.58;2.03;;;;;;;19.00;87.96;100342.41;6327595;28;20146;-71
2023/05/18 10:39:10;;;;;;;4.85;2.15;;;;;;;19.11;93.11;100335.16;6302668;28;20056;-71
2023/05/18 10:42:15;;;;;;;4.03;2.20;;;;;;;18.86;89.24;100339.22;6321097;28;20052;-71
2023/05/18 10:45:18;;;;;;;3.30;1.73;;;;;;;18.58;94.44;100340.84;6326332;28;20051;-72
2023/05/18 10:48:19;;;;;;;1.63;1.50;;;;;;;18.36;100.00;100334.00;6313208;28;20139;-72
2023/05/18 10:51:21;;;;;;;2.33;1.48;;;;;;;18.33;100.00;100337.75;6318874;28;20054;-72
2023/05/18 10:54:26;;;;;;;2.33;1.80;;;;;;;18.01;100.00;100331.84;6331201;28;20085;-71
2023/05/18 10:57:40;;;;;;;2.42;1.75;;;;;;;17.85;100.00;100325.28;6307558;28;20514;-72
2023/05/18 11:01:05;;;;;;;3.33;2.13;;;;;;;17.69;100.00;100327.56;6337439;28;20093;-72
2023/05/18 11:04:05;;;;;;;2.80;1.75;;;;;;;17.59;100.00;100334.59;6314474;28;20052;-72
2023/05/18 11:07:11;;;;;;;2.35;1.90;;;;;;;17.65;100.00;100334.91;6307737;28;20055;-72
2023/05/18 11:10:12;;;;;;;3.13;2.20;;;;;;;17.69;100.00;100335.47;6325603;28;20044;-73
2023/05/18 11:13:14;;;;;;;2.20;1.90;;;;;;;17.55;100.00;100336.66;6307250;28;20051;-72
2023/05/18 11:16:16;;;;;;;2.80;1.80;;;;;;;17.58;100.00;100341.66;6325344;28;20052;-70
2023/05/18 11:19:23;;;;;;;;;;;;;;;17.69;100.00;100340.75;6330253;28;20050;-72
2023/05/18 11:22:40;;;;;;;2.40;1.95;;;;;;;17.68;100.00;100334.63;6343122;28;19928;-71
2023/05/18 11:25:42;;;;;;;1.85;1.58;;;;;;;17.90;100.00;100340.72;6317351;28;20484;-70
2023/05/18 11:28:43;;;;;;;4.43;1.95;;;;;;;17.59;100.00;100345.16;6328887;28;20172;-72
2023/05/18 11:31:45;;;;;;;2.22;1.58;;;;;;;17.63;99.09;100351.84;6331270;28;20051;-72
2023/05/18 11:34:51;;;;;;;1.77;1.63;;;;;;;17.91;100.00;100345.03;6325654;28;20059;-71
2023/05/18 11:37:52;;;;;;;1.73;1.52;;;;;;;18.06;98.19;100350.78;6324235;28;20408;-72
2023/05/18 11:40:58;;;;;;;2.05;1.40;;;;;;;17.91;97.32;100353.78;6324717;28;20072;-73
2023/05/18 11:44:08;;;;;;;1.42;1.33;;;;;;;17.83;94.45;100351.00;6324645;28;20100;-72
2023/05/18 11:47:10;;;;;;;2.60;1.70;;;;;;;17.67;95.64;100348.81;6306391;28;20608;-73
2023/05/18 11:50:11;;;;;;;1.98;1.67;;;;;;;17.65;96.72;100352.53;6306131;28;20048;-72
2023/05/18 11:53:18;;;;;;;1.52;1.40;;;;;;;17.67;98.47;100346.16;6306237;28;20125;-72
2023/05/18 11:56:20;;;;;;;1.17;1.10;;;;;;;17.69;96.58;100346.03;6305963;28;20050;-72
2023/05/18 11:59:40;;;;;;;4.28;1.75;;;;;;;17.75;97.29;100347.28;6301805;28;20528;-71
2023/05/18 12:02:44;;;;;;;3.10;1.40;;;;;;;17.75;96.35;100348.16;6305938;28;20130;-71
2023/05/18 12:05:48;;;;;;;2.72;1.60;;;;;;;17.52;98.38;100350.09;6314451;28;20044;-71
2023/05/18 12:08:50;;;;;;;1.85;1.45;;;;;;;17.48;97.78;100357.47;6316467;28;20051;-71
2023/05/18 12:11:51;;;;;;;3.92;1.13;;;;;;;17.70;100.00;100358.25;6315139;28;20080;-71
2023/05/18 12:14:55;;;;;;;1.42;1.05;;;;;;;17.56;98.53;100355.97;6315167;28;20048;-71
2023/05/18 12:17:57;;;;;;;5.13;1.40;;;;;;;17.57;96.39;100355.84;6301451;28;20102;-72
2023/05/18 12:21:02;;;;;;;;;;;;;;;17.50;96.92;100354.66;6305775;28;20075;-71
2023/05/18 12:24:03;;;;;;;1.60;1.35;;;;;;;17.31;98.68;100352.78;6297564;28;19920;-72
2023/05/18 12:27:10;;;;;;;1.27;1.05;;;;;;;17.24;99.08;100349.81;6320062;28;20048;-71
2023/05/18 12:30:12;;;;;;;1.33;1.08;;;;;;;17.29;99.46;100357.34;6321123;28;20043;-71
2023/05/18 12:33:15;;;;;;;1.42;1.20;;;;;;;16.98;98.43;100352.00;6316435;28;20139;-72
2023/05/18 12:36:16;;;;;;;1.25;1.15;;;;;;;17.11;100.00;100352.66;6306944;28;20056;-72
2023/05/18 12:39:17;;;;;;;1.33;1.17;;;;;;;16.89;100.00;100347.50;6297544;28;20428;-71
2023/05/18 12:42:18;;;;;;;1.45;1.20;;;;;;;16.94;100.00;100355.00;6295958;28;20052;-71
2023/05/18 12:45:24;;;;;;;1.33;1.00;;;;;;;16.91;100.00;100342.94;6296144;28;20392;-71
2023/05/18 12:48:29;;;;;;;1.05;0.90;;;;;;;17.03;100.00;100347.19;6295785;28;20048;-72
2023/05/18 12:51:34;;;;;;;0.90;0.90;;;;;;;17.16;100.00;100344.34;6295974;28;20057;-72
2023/05/18 12:54:35;;;;;;;0.73;0.73;;;;;;;17.17;100.00;100359.19;6295550;28;20053;-71
2023/05/18 12:57:40;;;;;;;1.35;1.00;;;;;;;16.94;100.00;100358.47;6301540;28;20172;-72
2023/05/18 13:00:45;;;;;;;0.77;0.77;;;;;;;17.00;100.00;100365.06;6322612;28;20392;-72
2023/05/18 13:03:46;;;;;;;0.77;0.77;;;;;;;16.85;100.00;100365.34;6303890;28;20082;-72
2023/05/18 13:06:47;;;;;;;1.73;1.20;;;;;;;16.70;100.00;100370.06;6304978;28;20491;-71
2023/05/18 13:09:48;;;;;;;1.60;1.03;;;;;;;16.56;100.00;100364.25;6332989;28;20044;-72
2023/05/18 13:12:51;;;;;;;1.08;0.70;;;;;;;16.67;100.00;100369.47;6318793;28;20058;-72
2023/05/18 13:15:52;;;;;;;0.80;0.75;;;;;;;16.68;100.00;100365.88;6303283;28;20044;-71
2023/05/18 13:18:58;;;;;;;1.88;0.80;;;;;;;16.67;100.00;100366.84;6303630;28;20048;-72
2023/05/18 13:21:58;;;;;;;0.77;0.60;;;;;;;16.32;100.00;100358.19;6345661;28;20066;-71
2023/05/18 13:24:59;;;;;;;0.60;0.60;;;;;;;16.30;100.00;100364.53;6328402;28;20488;-71
2023/05/18 13:28:04;;;;;;;1.55;0.43;;;;;;;16.23;100.00;100364.19;6328085;28;20090;-71
2023/05/18 13:31:07;;;;;;;1.40;0.70;;;;;;;16.12;100.00;100364.19;6346530;28;20051;-72
2023/05/18 13:34:08;;;;;;;0.68;0.57;;;;;;;15.96;100.00;100359.34;6346287;28;20064;-71
2023/05/18 13:37:08;;;;;;;0.80;0.45;;;;;;;15.99;100.00;100358.25;6328122;28;20244;-71
2023/05/18 13:40:10;;;;;;;0.47;0.47;;;;;;;15.76;100.00;100354.78;6346159;28;20048;-72
2023/05/18 13:43:10;;;;;;;1.02;0.80;;;;;;;15.83;100.00;100359.44;6322316;28;20052;-71
2023/05/18 13:46:12;;;;;;;1.40;0.90;;;;;;;15.95;100.00;100362.91;6329755;28;20466;-71
2023/05/18 13:49:13;;;;;;;0.38;0.38;;;;;;;15.97;100.00;100368.06;6309555;28;20060;-71
2023/05/18 13:52:13;;;;;;;0.40;0.40;;;;;;;15.70;100.00;100370.06;6340598;28;20055;-71
2023/05/18 13:55:15;;;;;;;1.27;0.60;;;;;;;15.70;100.00;100370.06;6321549;28;20172;-71
2023/05/18 13:58:15;;;;;;;0.40;0.40;;;;;;;15.50;100.00;100374.25;6321024;28;20053;-71
2023/05/18 14:01:17;;;;;;;0.73;0.50;;;;;;;15.65;100.00;100376.66;6325444;28;20288;-72
2023/05/18 14:04:18;;;;;;;0.70;0.52;;;;;;;15.89;100.00;100376.53;6318947;28;20055;-71
2023/05/18 14:07:19;;;;;;;1.20;0.70;;;;;;;15.98;100.00;100373.22;6302882;28;20043;-72